sensor_id;sensor_type;location;lat;lon;timestamp;P1;durP1;ratioP1;P2;durP2;ratioP2
10090;SDS011;5084;51.386;6.778;2022-09-13T00:00:23;4.63;;;4.30;;
10090;SDS011;5084;51.386;6.778;2022-09-13T00:02:49;4.23;;;3.93;;
10090;SDS011;5084;51.386;6.778;2022-09-13T00:05:15;4.00;;;3.70;;
10090;SDS011;5084;51.386;6.778;2022-09-13T00:07:42;3.77;;;3.47;;
10090;SDS011;5084;51.386;6.778;2022-09-13T00:10:08;4.47;;;3.70;;
10090;SDS011;5084;51.386;6.778;2022-09-13T00:12:34;4.70;;;4.30;;
10090;SDS011;5084;51.386;6.778;2022-09-13T00:15:00;3.83;;;3.53;;
10090;SDS011;5084;51.386;6.778;2022-09-13T00:17:27;4.43;;;4.10;;
10090;SDS011;5084;51.386;6.778;2022-09-13T00:19:53;4.10;;;3.80;;
10090;SDS011;5084;51.386;6.778;2022-09-13T00:22:19;4.10;;;3.80;;
10090;SDS011;5084;51.386;6.778;2022-09-13T00:24:45;4.27;;;3.87;;
10090;SDS011;5084;51.386;6.778;2022-09-13T00:27:11;4.23;;;3.93;;
10090;SDS011;5084;51.386;6.778;2022-09-13T00:29:37;4.17;;;3.87;;
10090;SDS011;5084;51.386;6.778;2022-09-13T00:32:03;4.10;;;3.80;;
10090;SDS011;5084;51.386;6.778;2022-09-13T00:34:30;4.07;;;3.77;;
10090;SDS011;5084;51.386;6.778;2022-09-13T00:36:56;4.20;;;3.90;;
10090;SDS011;5084;51.386;6.778;2022-09-13T00:39:22;4.40;;;4.10;;
10090;SDS011;5084;51.386;6.778;2022-09-13T00:41:48;3.80;;;3.50;;
10090;SDS011;5084;51.386;6.778;2022-09-13T00:46:59;3.80;;;3.50;;
10090;SDS011;5084;51.386;6.778;2022-09-13T00:49:28;4.30;;;4.00;;
10090;SDS011;5084;51.386;6.778;2022-09-13T00:52:00;4.33;;;4.03;;
10090;SDS011;5084;51.386;6.778;2022-09-13T00:54:30;4.70;;;4.37;;
10090;SDS011;5084;51.386;6.778;2022-09-13T00:56:58;4.13;;;3.83;;
10090;SDS011;5084;51.386;6.778;2022-09-13T00:59:28;4.37;;;3.97;;
10090;SDS011;5084;51.386;6.778;2022-09-13T01:01:55;4.10;;;3.70;;
10090;SDS011;5084;51.386;6.778;2022-09-13T01:04:24;4.40;;;4.10;;
10090;SDS011;5084;51.386;6.778;2022-09-13T01:06:51;4.60;;;4.20;;
10090;SDS011;5084;51.386;6.778;2022-09-13T01:09:19;4.10;;;3.70;;
10090;SDS011;5084;51.386;6.778;2022-09-13T01:14:13;3.77;;;3.57;;
10090;SDS011;5084;51.386;6.778;2022-09-13T01:16:39;4.33;;;4.03;;
10090;SDS011;5084;51.386;6.778;2022-09-13T01:19:05;3.77;;;3.57;;
10090;SDS011;5084;51.386;6.778;2022-09-13T01:24:18;4.17;;;3.87;;
10090;SDS011;5084;51.386;6.778;2022-09-13T01:32:32;4.47;;;4.10;;
10090;SDS011;5084;51.386;6.778;2022-09-13T01:46:03;4.20;;;3.80;;
10090;SDS011;5084;51.386;6.778;2022-09-13T01:53:50;3.80;;;3.50;;
10090;SDS011;5084;51.386;6.778;2022-09-13T01:56:25;4.60;;;4.20;;
10090;SDS011;5084;51.386;6.778;2022-09-13T01:58:55;4.00;;;3.70;;
10090;SDS011;5084;51.386;6.778;2022-09-13T02:01:27;4.57;;;4.17;;
10090;SDS011;5084;51.386;6.778;2022-09-13T02:03:57;4.30;;;4.00;;
10090;SDS011;5084;51.386;6.778;2022-09-13T02:06:32;4.20;;;3.90;;
10090;SDS011;5084;51.386;6.778;2022-09-13T02:08:59;4.23;;;3.93;;
10090;SDS011;5084;51.386;6.778;2022-09-13T02:11:26;4.47;;;4.07;;
10090;SDS011;5084;51.386;6.778;2022-09-13T02:16:30;4.23;;;3.93;;
10090;SDS011;5084;51.386;6.778;2022-09-13T02:19:00;3.97;;;3.67;;
10090;SDS011;5084;51.386;6.778;2022-09-13T02:21:29;4.13;;;3.73;;
10090;SDS011;5084;51.386;6.778;2022-09-13T02:24:05;4.97;;;3.60;;
10090;SDS011;5084;51.386;6.778;2022-09-13T02:26:33;4.27;;;3.97;;
10090;SDS011;5084;51.386;6.778;2022-09-13T02:29:00;4.83;;;4.43;;
10090;SDS011;5084;51.386;6.778;2022-09-13T02:31:31;4.27;;;3.97;;
10090;SDS011;5084;51.386;6.778;2022-09-13T02:34:06;4.63;;;4.30;;
10090;SDS011;5084;51.386;6.778;2022-09-13T02:36:35;4.43;;;4.10;;
10090;SDS011;5084;51.386;6.778;2022-09-13T02:39:09;4.20;;;3.90;;
10090;SDS011;5084;51.386;6.778;2022-09-13T02:44:13;4.37;;;3.97;;
10090;SDS011;5084;51.386;6.778;2022-09-13T02:46:45;3.93;;;3.63;;
10090;SDS011;5084;51.386;6.778;2022-09-13T02:49:20;3.73;;;3.43;;
10090;SDS011;5084;51.386;6.778;2022-09-13T02:51:58;4.33;;;4.00;;
10090;SDS011;5084;51.386;6.778;2022-09-13T02:59:39;4.03;;;3.67;;
10090;SDS011;5084;51.386;6.778;2022-09-13T03:02:18;4.00;;;3.70;;
10090;SDS011;5084;51.386;6.778;2022-09-13T03:04:45;3.80;;;3.50;;
10090;SDS011;5084;51.386;6.778;2022-09-13T03:07:12;3.83;;;3.47;;
10090;SDS011;5084;51.386;6.778;2022-09-13T03:09:41;4.10;;;3.80;;
10090;SDS011;5084;51.386;6.778;2022-09-13T03:14:42;4.17;;;3.87;;
10090;SDS011;5084;51.386;6.778;2022-09-13T03:25:36;4.47;;;4.07;;
10090;SDS011;5084;51.386;6.778;2022-09-13T03:28:32;4.70;;;4.30;;
10090;SDS011;5084;51.386;6.778;2022-09-13T03:30:54;4.37;;;3.97;;
10090;SDS011;5084;51.386;6.778;2022-09-13T03:33:29;5.73;;;5.33;;
10090;SDS011;5084;51.386;6.778;2022-09-13T03:36:01;4.57;;;4.10;;
10090;SDS011;5084;51.386;6.778;2022-09-13T03:38:49;4.40;;;4.10;;
10090;SDS011;5084;51.386;6.778;2022-09-13T03:41:18;3.90;;;3.60;;
10090;SDS011;5084;51.386;6.778;2022-09-13T03:44:05;4.10;;;3.80;;
10090;SDS011;5084;51.386;6.778;2022-09-13T03:46:34;4.60;;;3.90;;
10090;SDS011;5084;51.386;6.778;2022-09-13T03:49:08;3.87;;;3.57;;
10090;SDS011;5084;51.386;6.778;2022-09-13T03:51:36;4.40;;;3.97;;
10090;SDS011;5084;51.386;6.778;2022-09-13T03:54:04;3.90;;;3.60;;
10090;SDS011;5084;51.386;6.778;2022-09-13T03:56:39;4.40;;;4.10;;
10090;SDS011;5084;51.386;6.778;2022-09-13T03:59:06;4.00;;;3.70;;
10090;SDS011;5084;51.386;6.778;2022-09-13T04:01:32;3.90;;;3.60;;
10090;SDS011;5084;51.386;6.778;2022-09-13T04:03:58;4.80;;;4.37;;
10090;SDS011;5084;51.386;6.778;2022-09-13T04:06:25;4.13;;;3.77;;
10090;SDS011;5084;51.386;6.778;2022-09-13T04:08:51;3.83;;;3.53;;
10090;SDS011;5084;51.386;6.778;2022-09-13T04:11:18;4.40;;;4.03;;
10090;SDS011;5084;51.386;6.778;2022-09-13T04:13:45;3.90;;;3.60;;
10090;SDS011;5084;51.386;6.778;2022-09-13T04:16:11;4.90;;;4.07;;
10090;SDS011;5084;51.386;6.778;2022-09-13T04:18:38;4.43;;;4.03;;
10090;SDS011;5084;51.386;6.778;2022-09-13T04:21:04;5.10;;;4.67;;
10090;SDS011;5084;51.386;6.778;2022-09-13T04:23:31;5.50;;;4.10;;
10090;SDS011;5084;51.386;6.778;2022-09-13T04:26:04;3.83;;;3.57;;
10090;SDS011;5084;51.386;6.778;2022-09-13T04:28:30;4.30;;;4.00;;
10090;SDS011;5084;51.386;6.778;2022-09-13T04:30:56;4.20;;;3.83;;
10090;SDS011;5084;51.386;6.778;2022-09-13T04:33:23;5.67;;;5.27;;
10090;SDS011;5084;51.386;6.778;2022-09-13T04:35:53;3.73;;;3.43;;
10090;SDS011;5084;51.386;6.778;2022-09-13T04:38:19;5.07;;;4.20;;
10090;SDS011;5084;51.386;6.778;2022-09-13T04:40:50;3.97;;;3.67;;
10090;SDS011;5084;51.386;6.778;2022-09-13T04:43:17;4.40;;;4.07;;
10090;SDS011;5084;51.386;6.778;2022-09-13T04:45:43;4.33;;;3.93;;
10090;SDS011;5084;51.386;6.778;2022-09-13T04:48:10;5.70;;;4.80;;
10090;SDS011;5084;51.386;6.778;2022-09-13T04:50:36;5.50;;;4.63;;
10090;SDS011;5084;51.386;6.778;2022-09-13T04:53:02;4.60;;;4.17;;
10090;SDS011;5084;51.386;6.778;2022-09-13T04:55:29;4.20;;;3.90;;
10090;SDS011;5084;51.386;6.778;2022-09-13T04:57:55;4.93;;;4.37;;
10090;SDS011;5084;51.386;6.778;2022-09-13T05:00:22;5.70;;;5.33;;
10090;SDS011;5084;51.386;6.778;2022-09-13T05:02:53;4.10;;;3.80;;
10090;SDS011;5084;51.386;6.778;2022-09-13T05:05:20;4.50;;;4.10;;
10090;SDS011;5084;51.386;6.778;2022-09-13T05:07:49;4.80;;;4.40;;
10090;SDS011;5084;51.386;6.778;2022-09-13T05:10:16;4.30;;;4.00;;
10090;SDS011;5084;51.386;6.778;2022-09-13T05:12:42;4.73;;;4.33;;
10090;SDS011;5084;51.386;6.778;2022-09-13T05:15:09;4.33;;;3.93;;
10090;SDS011;5084;51.386;6.778;2022-09-13T05:17:36;4.83;;;4.43;;
10090;SDS011;5084;51.386;6.778;2022-09-13T05:20:03;5.00;;;4.50;;
10090;SDS011;5084;51.386;6.778;2022-09-13T05:22:29;4.73;;;4.40;;
10090;SDS011;5084;51.386;6.778;2022-09-13T05:24:56;4.53;;;4.13;;
10090;SDS011;5084;51.386;6.778;2022-09-13T05:27:22;4.27;;;3.97;;
10090;SDS011;5084;51.386;6.778;2022-09-13T05:29:48;4.47;;;4.17;;
10090;SDS011;5084;51.386;6.778;2022-09-13T05:32:14;4.87;;;4.30;;
10090;SDS011;5084;51.386;6.778;2022-09-13T05:34:40;4.37;;;3.97;;
10090;SDS011;5084;51.386;6.778;2022-09-13T05:37:06;4.43;;;4.07;;
10090;SDS011;5084;51.386;6.778;2022-09-13T05:39:32;4.27;;;3.87;;
10090;SDS011;5084;51.386;6.778;2022-09-13T05:42:00;4.63;;;4.00;;
10090;SDS011;5084;51.386;6.778;2022-09-13T05:44:26;8.10;;;5.43;;
10090;SDS011;5084;51.386;6.778;2022-09-13T05:46:52;6.70;;;5.50;;
10090;SDS011;5084;51.386;6.778;2022-09-13T05:49:18;5.53;;;4.97;;
10090;SDS011;5084;51.386;6.778;2022-09-13T05:51:44;5.40;;;5.00;;
10090;SDS011;5084;51.386;6.778;2022-09-13T05:54:11;5.50;;;5.00;;
10090;SDS011;5084;51.386;6.778;2022-09-13T05:56:37;12.00;;;5.50;;
10090;SDS011;5084;51.386;6.778;2022-09-13T05:59:03;5.17;;;4.67;;
10090;SDS011;5084;51.386;6.778;2022-09-13T06:01:29;6.63;;;5.93;;
10090;SDS011;5084;51.386;6.778;2022-09-13T06:03:56;6.13;;;5.17;;
10090;SDS011;5084;51.386;6.778;2022-09-13T06:06:23;5.67;;;5.13;;
10090;SDS011;5084;51.386;6.778;2022-09-13T06:08:56;5.03;;;4.63;;
10090;SDS011;5084;51.386;6.778;2022-09-13T06:11:23;10.37;;;5.93;;
10090;SDS011;5084;51.386;6.778;2022-09-13T06:13:50;6.70;;;5.73;;
10090;SDS011;5084;51.386;6.778;2022-09-13T06:16:17;7.10;;;5.30;;
10090;SDS011;5084;51.386;6.778;2022-09-13T06:18:43;9.10;;;5.70;;
10090;SDS011;5084;51.386;6.778;2022-09-13T06:21:10;6.60;;;5.50;;
10090;SDS011;5084;51.386;6.778;2022-09-13T06:23:41;6.97;;;5.70;;
10090;SDS011;5084;51.386;6.778;2022-09-13T06:26:09;6.23;;;5.67;;
10090;SDS011;5084;51.386;6.778;2022-09-13T06:28:36;7.00;;;6.20;;
10090;SDS011;5084;51.386;6.778;2022-09-13T06:31:06;8.60;;;6.03;;
10090;SDS011;5084;51.386;6.778;2022-09-13T06:33:33;8.50;;;6.13;;
10090;SDS011;5084;51.386;6.778;2022-09-13T06:36:03;7.23;;;6.37;;
10090;SDS011;5084;51.386;6.778;2022-09-13T06:38:30;7.13;;;5.90;;
10090;SDS011;5084;51.386;6.778;2022-09-13T06:41:03;6.50;;;5.90;;
10090;SDS011;5084;51.386;6.778;2022-09-13T06:43:30;6.67;;;6.07;;
10090;SDS011;5084;51.386;6.778;2022-09-13T06:46:00;8.47;;;6.80;;
10090;SDS011;5084;51.386;6.778;2022-09-13T06:48:29;6.60;;;6.00;;
10090;SDS011;5084;51.386;6.778;2022-09-13T06:51:03;7.50;;;5.97;;
10090;SDS011;5084;51.386;6.778;2022-09-13T06:53:29;8.60;;;6.53;;
10090;SDS011;5084;51.386;6.778;2022-09-13T06:56:15;7.17;;;6.50;;
10090;SDS011;5084;51.386;6.778;2022-09-13T06:58:42;6.17;;;5.37;;
10090;SDS011;5084;51.386;6.778;2022-09-13T07:01:13;7.03;;;5.70;;
10090;SDS011;5084;51.386;6.778;2022-09-13T07:03:40;6.90;;;6.30;;
10090;SDS011;5084;51.386;6.778;2022-09-13T07:06:17;6.07;;;5.43;;
10090;SDS011;5084;51.386;6.778;2022-09-13T07:08:44;7.10;;;5.97;;
10090;SDS011;5084;51.386;6.778;2022-09-13T07:11:11;8.93;;;6.13;;
10090;SDS011;5084;51.386;6.778;2022-09-13T07:13:38;7.20;;;6.20;;
10090;SDS011;5084;51.386;6.778;2022-09-13T07:16:05;7.00;;;6.27;;
10090;SDS011;5084;51.386;6.778;2022-09-13T07:18:32;6.77;;;6.07;;
10090;SDS011;5084;51.386;6.778;2022-09-13T07:20:59;8.60;;;6.07;;
10090;SDS011;5084;51.386;6.778;2022-09-13T07:23:26;7.17;;;6.57;;
10090;SDS011;5084;51.386;6.778;2022-09-13T07:25:53;6.97;;;5.67;;
10090;SDS011;5084;51.386;6.778;2022-09-13T07:28:19;7.07;;;6.10;;
10090;SDS011;5084;51.386;6.778;2022-09-13T07:30:46;7.43;;;5.73;;
10090;SDS011;5084;51.386;6.778;2022-09-13T07:33:12;8.27;;;6.57;;
10090;SDS011;5084;51.386;6.778;2022-09-13T07:35:38;6.13;;;5.53;;
10090;SDS011;5084;51.386;6.778;2022-09-13T07:38:05;6.47;;;5.80;;
10090;SDS011;5084;51.386;6.778;2022-09-13T07:40:31;8.20;;;5.90;;
10090;SDS011;5084;51.386;6.778;2022-09-13T07:42:59;6.67;;;6.07;;
10090;SDS011;5084;51.386;6.778;2022-09-13T07:45:26;5.97;;;5.43;;
10090;SDS011;5084;51.386;6.778;2022-09-13T07:47:52;9.33;;;5.63;;
10090;SDS011;5084;51.386;6.778;2022-09-13T07:50:19;6.77;;;5.60;;
10090;SDS011;5084;51.386;6.778;2022-09-13T07:52:45;6.23;;;5.63;;
10090;SDS011;5084;51.386;6.778;2022-09-13T07:55:11;6.23;;;5.20;;
10090;SDS011;5084;51.386;6.778;2022-09-13T07:57:37;5.70;;;4.90;;
10090;SDS011;5084;51.386;6.778;2022-09-13T08:00:04;6.83;;;5.07;;
10090;SDS011;5084;51.386;6.778;2022-09-13T08:02:30;7.87;;;5.37;;
10090;SDS011;5084;51.386;6.778;2022-09-13T08:04:56;9.00;;;5.00;;
10090;SDS011;5084;51.386;6.778;2022-09-13T08:07:22;5.23;;;4.73;;
10090;SDS011;5084;51.386;6.778;2022-09-13T08:09:49;5.67;;;5.10;;
10090;SDS011;5084;51.386;6.778;2022-09-13T08:12:15;5.50;;;5.03;;
10090;SDS011;5084;51.386;6.778;2022-09-13T08:14:41;5.53;;;5.03;;
10090;SDS011;5084;51.386;6.778;2022-09-13T08:17:07;5.80;;;5.20;;
10090;SDS011;5084;51.386;6.778;2022-09-13T08:19:34;6.23;;;5.57;;
10090;SDS011;5084;51.386;6.778;2022-09-13T08:22:00;7.23;;;5.83;;
10090;SDS011;5084;51.386;6.778;2022-09-13T08:24:26;6.57;;;5.47;;
10090;SDS011;5084;51.386;6.778;2022-09-13T08:26:53;8.37;;;5.50;;
10090;SDS011;5084;51.386;6.778;2022-09-13T08:29:20;7.03;;;5.67;;
10090;SDS011;5084;51.386;6.778;2022-09-13T08:31:46;6.03;;;5.50;;
10090;SDS011;5084;51.386;6.778;2022-09-13T08:34:13;7.83;;;5.87;;
10090;SDS011;5084;51.386;6.778;2022-09-13T08:36:39;6.00;;;5.40;;
10090;SDS011;5084;51.386;6.778;2022-09-13T08:39:05;6.60;;;5.43;;
10090;SDS011;5084;51.386;6.778;2022-09-13T08:46:39;6.93;;;5.73;;
10090;SDS011;5084;51.386;6.778;2022-09-13T08:49:28;6.33;;;5.73;;
10090;SDS011;5084;51.386;6.778;2022-09-13T08:51:53;7.70;;;6.63;;
10090;SDS011;5084;51.386;6.778;2022-09-13T08:54:21;10.37;;;7.37;;
10090;SDS011;5084;51.386;6.778;2022-09-13T09:04:47;9.07;;;6.33;;
10090;SDS011;5084;51.386;6.778;2022-09-13T09:07:16;8.93;;;6.20;;
10090;SDS011;5084;51.386;6.778;2022-09-13T09:12:27;8.10;;;5.63;;
10090;SDS011;5084;51.386;6.778;2022-09-13T09:15:03;8.17;;;6.60;;
10090;SDS011;5084;51.386;6.778;2022-09-13T09:17:33;9.20;;;6.17;;
10090;SDS011;5084;51.386;6.778;2022-09-13T09:22:48;6.37;;;5.53;;
10090;SDS011;5084;51.386;6.778;2022-09-13T09:25:15;7.00;;;6.30;;
10090;SDS011;5084;51.386;6.778;2022-09-13T09:27:41;6.37;;;5.20;;
10090;SDS011;5084;51.386;6.778;2022-09-13T09:30:10;7.43;;;5.70;;
10090;SDS011;5084;51.386;6.778;2022-09-13T09:32:51;8.10;;;5.90;;
10090;SDS011;5084;51.386;6.778;2022-09-13T09:35:36;8.83;;;6.30;;
10090;SDS011;5084;51.386;6.778;2022-09-13T09:38:12;8.67;;;5.73;;
10090;SDS011;5084;51.386;6.778;2022-09-13T09:40:42;10.47;;;5.60;;
10090;SDS011;5084;51.386;6.778;2022-09-13T09:43:29;7.93;;;5.63;;
10090;SDS011;5084;51.386;6.778;2022-09-13T09:46:02;10.43;;;5.83;;
10090;SDS011;5084;51.386;6.778;2022-09-13T09:48:30;8.23;;;6.20;;
10090;SDS011;5084;51.386;6.778;2022-09-13T09:51:00;8.00;;;7.10;;
10090;SDS011;5084;51.386;6.778;2022-09-13T09:56:05;12.50;;;7.03;;
10090;SDS011;5084;51.386;6.778;2022-09-13T09:58:42;18.27;;;7.60;;
10090;SDS011;5084;51.386;6.778;2022-09-13T10:03:42;11.40;;;6.93;;
10090;SDS011;5084;51.386;6.778;2022-09-13T10:06:24;10.30;;;6.87;;
10090;SDS011;5084;51.386;6.778;2022-09-13T10:09:01;15.07;;;7.83;;
10090;SDS011;5084;51.386;6.778;2022-09-13T10:14:04;14.57;;;7.20;;
10090;SDS011;5084;51.386;6.778;2022-09-13T10:16:31;14.30;;;6.60;;
10090;SDS011;5084;51.386;6.778;2022-09-13T10:19:20;9.30;;;5.90;;
10090;SDS011;5084;51.386;6.778;2022-09-13T10:22:04;11.83;;;7.17;;
10090;SDS011;5084;51.386;6.778;2022-09-13T10:24:31;7.13;;;6.17;;
10090;SDS011;5084;51.386;6.778;2022-09-13T10:26:57;11.07;;;5.60;;
10090;SDS011;5084;51.386;6.778;2022-09-13T10:29:25;11.23;;;5.87;;
10090;SDS011;5084;51.386;6.778;2022-09-13T10:31:51;8.90;;;5.40;;
10090;SDS011;5084;51.386;6.778;2022-09-13T10:34:20;8.93;;;5.60;;
10090;SDS011;5084;51.386;6.778;2022-09-13T10:39:17;5.20;;;4.80;;
10090;SDS011;5084;51.386;6.778;2022-09-13T10:41:49;6.03;;;4.57;;
10090;SDS011;5084;51.386;6.778;2022-09-13T10:44:23;6.87;;;4.80;;
10090;SDS011;5084;51.386;6.778;2022-09-13T10:46:51;4.83;;;4.40;;
10090;SDS011;5084;51.386;6.778;2022-09-13T10:54:48;5.67;;;5.03;;
10090;SDS011;5084;51.386;6.778;2022-09-13T10:57:26;5.43;;;4.10;;
10090;SDS011;5084;51.386;6.778;2022-09-13T10:59:54;7.13;;;4.30;;
10090;SDS011;5084;51.386;6.778;2022-09-13T11:10:44;5.57;;;4.10;;
10090;SDS011;5084;51.386;6.778;2022-09-13T11:13:05;3.67;;;3.23;;
10090;SDS011;5084;51.386;6.778;2022-09-13T11:23:30;5.63;;;4.40;;
10090;SDS011;5084;51.386;6.778;2022-09-13T11:29:02;5.60;;;4.10;;
10090;SDS011;5084;51.386;6.778;2022-09-13T11:31:27;4.37;;;3.93;;
10090;SDS011;5084;51.386;6.778;2022-09-13T11:34:06;5.83;;;4.20;;
10090;SDS011;5084;51.386;6.778;2022-09-13T11:39:31;4.03;;;3.73;;
10090;SDS011;5084;51.386;6.778;2022-09-13T11:42:15;7.70;;;4.37;;
10090;SDS011;5084;51.386;6.778;2022-09-13T11:49:49;5.13;;;4.63;;
10090;SDS011;5084;51.386;6.778;2022-09-13T11:52:41;3.27;;;2.97;;
10090;SDS011;5084;51.386;6.778;2022-09-13T11:55:17;5.30;;;4.13;;
10090;SDS011;5084;51.386;6.778;2022-09-13T11:57:49;7.67;;;4.30;;
10090;SDS011;5084;51.386;6.778;2022-09-13T12:05:34;4.40;;;4.00;;
10090;SDS011;5084;51.386;6.778;2022-09-13T12:12:59;5.17;;;3.67;;
10090;SDS011;5084;51.386;6.778;2022-09-13T12:18:01;3.70;;;3.40;;
10090;SDS011;5084;51.386;6.778;2022-09-13T12:20:34;4.43;;;4.03;;
10090;SDS011;5084;51.386;6.778;2022-09-13T12:23:03;4.13;;;3.73;;
10090;SDS011;5084;51.386;6.778;2022-09-13T12:25:45;6.00;;;4.23;;
10090;SDS011;5084;51.386;6.778;2022-09-13T12:28:30;5.07;;;4.57;;
10090;SDS011;5084;51.386;6.778;2022-09-13T12:31:13;4.33;;;3.87;;
10090;SDS011;5084;51.386;6.778;2022-09-13T12:33:43;5.10;;;3.80;;
10090;SDS011;5084;51.386;6.778;2022-09-13T12:36:24;4.50;;;3.40;;
10090;SDS011;5084;51.386;6.778;2022-09-13T13:01:09;8.17;;;4.53;;
10090;SDS011;5084;51.386;6.778;2022-09-13T13:03:29;4.33;;;3.93;;
10090;SDS011;5084;51.386;6.778;2022-09-13T13:06:23;7.10;;;5.50;;
10090;SDS011;5084;51.386;6.778;2022-09-13T13:08:51;5.67;;;4.40;;
10090;SDS011;5084;51.386;6.778;2022-09-13T13:11:19;3.70;;;3.40;;
10090;SDS011;5084;51.386;6.778;2022-09-13T13:13:58;5.03;;;4.43;;
10090;SDS011;5084;51.386;6.778;2022-09-13T13:16:30;4.20;;;3.60;;
10090;SDS011;5084;51.386;6.778;2022-09-13T13:19:01;5.73;;;3.70;;
10090;SDS011;5084;51.386;6.778;2022-09-13T13:29:19;5.70;;;4.67;;
10090;SDS011;5084;51.386;6.778;2022-09-13T13:34:44;4.93;;;4.50;;
10090;SDS011;5084;51.386;6.778;2022-09-13T13:39:43;4.73;;;4.33;;
10090;SDS011;5084;51.386;6.778;2022-09-13T13:52:42;4.30;;;3.87;;
10090;SDS011;5084;51.386;6.778;2022-09-13T13:56:03;4.03;;;3.63;;
10090;SDS011;5084;51.386;6.778;2022-09-13T14:00:47;4.20;;;3.70;;
10090;SDS011;5084;51.386;6.778;2022-09-13T14:11:33;4.60;;;4.10;;
10090;SDS011;5084;51.386;6.778;2022-09-13T14:14:12;9.43;;;4.07;;
10090;SDS011;5084;51.386;6.778;2022-09-13T14:16:33;4.57;;;3.30;;
10090;SDS011;5084;51.386;6.778;2022-09-13T14:21:34;4.30;;;3.53;;
10090;SDS011;5084;51.386;6.778;2022-09-13T14:24:34;4.60;;;3.53;;
10090;SDS011;5084;51.386;6.778;2022-09-13T14:26:56;4.60;;;4.13;;
10090;SDS011;5084;51.386;6.778;2022-09-13T14:29:23;3.63;;;3.30;;
10090;SDS011;5084;51.386;6.778;2022-09-13T14:31:54;4.63;;;3.57;;
10090;SDS011;5084;51.386;6.778;2022-09-13T14:34:26;4.03;;;3.40;;
10090;SDS011;5084;51.386;6.778;2022-09-13T14:36:54;3.77;;;3.47;;
10090;SDS011;5084;51.386;6.778;2022-09-13T14:39:21;5.47;;;3.67;;
10090;SDS011;5084;51.386;6.778;2022-09-13T14:41:47;5.40;;;4.03;;
10090;SDS011;5084;51.386;6.778;2022-09-13T14:44:23;5.63;;;5.23;;
10090;SDS011;5084;51.386;6.778;2022-09-13T14:46:52;4.97;;;4.57;;
10090;SDS011;5084;51.386;6.778;2022-09-13T14:49:22;4.70;;;4.37;;
10090;SDS011;5084;51.386;6.778;2022-09-13T14:51:51;4.60;;;4.13;;
10090;SDS011;5084;51.386;6.778;2022-09-13T14:54:30;9.00;;;4.80;;
10090;SDS011;5084;51.386;6.778;2022-09-13T14:56:59;5.50;;;4.60;;
10090;SDS011;5084;51.386;6.778;2022-09-13T14:59:43;4.80;;;4.40;;
10090;SDS011;5084;51.386;6.778;2022-09-13T15:02:16;6.00;;;4.23;;
10090;SDS011;5084;51.386;6.778;2022-09-13T15:04:44;5.03;;;4.53;;
10090;SDS011;5084;51.386;6.778;2022-09-13T15:07:17;5.07;;;4.67;;
10090;SDS011;5084;51.386;6.778;2022-09-13T15:09:45;4.53;;;4.20;;
10090;SDS011;5084;51.386;6.778;2022-09-13T15:12:27;8.60;;;4.60;;
10090;SDS011;5084;51.386;6.778;2022-09-13T15:15:18;9.33;;;5.67;;
10090;SDS011;5084;51.386;6.778;2022-09-13T15:20:22;5.43;;;5.00;;
10090;SDS011;5084;51.386;6.778;2022-09-13T15:22:49;5.07;;;4.53;;
10090;SDS011;5084;51.386;6.778;2022-09-13T15:25:18;5.63;;;4.80;;
10090;SDS011;5084;51.386;6.778;2022-09-13T15:27:46;6.10;;;5.53;;
10090;SDS011;5084;51.386;6.778;2022-09-13T15:32:45;7.90;;;5.77;;
10090;SDS011;5084;51.386;6.778;2022-09-13T15:35:21;7.37;;;6.13;;
10090;SDS011;5084;51.386;6.778;2022-09-13T15:37:57;6.77;;;6.23;;
10090;SDS011;5084;51.386;6.778;2022-09-13T15:40:24;6.53;;;5.73;;
10090;SDS011;5084;51.386;6.778;2022-09-13T15:42:51;8.50;;;6.03;;
10090;SDS011;5084;51.386;6.778;2022-09-13T15:45:18;7.63;;;6.80;;
10090;SDS011;5084;51.386;6.778;2022-09-13T15:47:45;6.57;;;5.63;;
10090;SDS011;5084;51.386;6.778;2022-09-13T15:50:23;6.37;;;5.73;;
10090;SDS011;5084;51.386;6.778;2022-09-13T15:52:52;7.73;;;6.90;;
10090;SDS011;5084;51.386;6.778;2022-09-13T15:55:18;10.53;;;6.33;;
10090;SDS011;5084;51.386;6.778;2022-09-13T15:57:45;8.73;;;6.93;;
10090;SDS011;5084;51.386;6.778;2022-09-13T16:00:15;7.83;;;6.87;;
10090;SDS011;5084;51.386;6.778;2022-09-13T16:02:41;8.57;;;6.97;;
10090;SDS011;5084;51.386;6.778;2022-09-13T16:05:08;8.97;;;7.30;;
10090;SDS011;5084;51.386;6.778;2022-09-13T16:07:36;7.87;;;6.40;;
10090;SDS011;5084;51.386;6.778;2022-09-13T16:10:02;8.30;;;7.50;;
10090;SDS011;5084;51.386;6.778;2022-09-13T16:12:29;6.97;;;6.43;;
10090;SDS011;5084;51.386;6.778;2022-09-13T16:14:55;9.03;;;8.03;;
10090;SDS011;5084;51.386;6.778;2022-09-13T16:17:25;10.27;;;7.83;;
10090;SDS011;5084;51.386;6.778;2022-09-13T16:19:52;7.53;;;6.67;;
10090;SDS011;5084;51.386;6.778;2022-09-13T16:22:18;8.30;;;7.43;;
10090;SDS011;5084;51.386;6.778;2022-09-13T16:24:44;9.07;;;6.90;;
10090;SDS011;5084;51.386;6.778;2022-09-13T16:27:14;8.20;;;7.40;;
10090;SDS011;5084;51.386;6.778;2022-09-13T16:29:41;8.13;;;7.20;;
10090;SDS011;5084;51.386;6.778;2022-09-13T16:32:07;8.53;;;7.60;;
10090;SDS011;5084;51.386;6.778;2022-09-13T16:34:34;10.27;;;8.63;;
10090;SDS011;5084;51.386;6.778;2022-09-13T16:37:00;8.03;;;7.23;;
10090;SDS011;5084;51.386;6.778;2022-09-13T16:39:26;10.93;;;7.90;;
10090;SDS011;5084;51.386;6.778;2022-09-13T16:41:53;11.37;;;7.87;;
10090;SDS011;5084;51.386;6.778;2022-09-13T16:44:19;10.50;;;7.47;;
10090;SDS011;5084;51.386;6.778;2022-09-13T16:46:46;10.67;;;7.00;;
10090;SDS011;5084;51.386;6.778;2022-09-13T16:49:12;17.33;;;8.87;;
10090;SDS011;5084;51.386;6.778;2022-09-13T16:51:38;19.57;;;7.87;;
10090;SDS011;5084;51.386;6.778;2022-09-13T16:54:04;8.80;;;7.90;;
10090;SDS011;5084;51.386;6.778;2022-09-13T16:56:30;11.30;;;8.10;;
10090;SDS011;5084;51.386;6.778;2022-09-13T16:58:57;8.50;;;7.43;;
10090;SDS011;5084;51.386;6.778;2022-09-13T17:01:24;8.43;;;7.20;;
10090;SDS011;5084;51.386;6.778;2022-09-13T17:03:51;10.00;;;7.13;;
10090;SDS011;5084;51.386;6.778;2022-09-13T17:06:19;8.33;;;7.33;;
10090;SDS011;5084;51.386;6.778;2022-09-13T17:08:46;8.90;;;8.13;;
10090;SDS011;5084;51.386;6.778;2022-09-13T17:11:14;9.43;;;7.27;;
10090;SDS011;5084;51.386;6.778;2022-09-13T17:13:40;8.10;;;6.97;;
10090;SDS011;5084;51.386;6.778;2022-09-13T17:16:16;9.43;;;7.97;;
10090;SDS011;5084;51.386;6.778;2022-09-13T17:18:43;9.03;;;7.70;;
10090;SDS011;5084;51.386;6.778;2022-09-13T17:21:09;7.77;;;7.07;;
10090;SDS011;5084;51.386;6.778;2022-09-13T17:23:35;8.00;;;7.30;;
10090;SDS011;5084;51.386;6.778;2022-09-13T17:26:02;9.43;;;7.00;;
10090;SDS011;5084;51.386;6.778;2022-09-13T17:28:28;9.37;;;6.97;;
10090;SDS011;5084;51.386;6.778;2022-09-13T17:30:54;9.27;;;7.93;;
10090;SDS011;5084;51.386;6.778;2022-09-13T17:33:21;8.37;;;7.33;;
10090;SDS011;5084;51.386;6.778;2022-09-13T17:35:56;9.70;;;6.93;;
10090;SDS011;5084;51.386;6.778;2022-09-13T17:38:22;7.07;;;6.37;;
10090;SDS011;5084;51.386;6.778;2022-09-13T17:40:57;7.40;;;6.47;;
10090;SDS011;5084;51.386;6.778;2022-09-13T17:43:23;7.50;;;6.30;;
10090;SDS011;5084;51.386;6.778;2022-09-13T17:45:49;7.37;;;6.63;;
10090;SDS011;5084;51.386;6.778;2022-09-13T17:48:16;8.13;;;6.73;;
10090;SDS011;5084;51.386;6.778;2022-09-13T17:50:42;7.70;;;6.73;;
10090;SDS011;5084;51.386;6.778;2022-09-13T17:53:08;8.97;;;6.10;;
10090;SDS011;5084;51.386;6.778;2022-09-13T17:55:36;7.30;;;6.60;;
10090;SDS011;5084;51.386;6.778;2022-09-13T17:58:02;11.80;;;6.87;;
10090;SDS011;5084;51.386;6.778;2022-09-13T18:00:28;8.20;;;5.90;;
10090;SDS011;5084;51.386;6.778;2022-09-13T18:02:55;8.60;;;5.70;;
10090;SDS011;5084;51.386;6.778;2022-09-13T18:05:21;7.07;;;5.30;;
10090;SDS011;5084;51.386;6.778;2022-09-13T18:07:47;5.37;;;4.60;;
10090;SDS011;5084;51.386;6.778;2022-09-13T18:10:13;8.27;;;5.80;;
10090;SDS011;5084;51.386;6.778;2022-09-13T18:12:41;5.13;;;4.60;;
10090;SDS011;5084;51.386;6.778;2022-09-13T18:15:07;5.27;;;4.77;;
10090;SDS011;5084;51.386;6.778;2022-09-13T18:17:33;5.43;;;3.87;;
10090;SDS011;5084;51.386;6.778;2022-09-13T18:20:00;5.30;;;4.10;;
10090;SDS011;5084;51.386;6.778;2022-09-13T18:22:32;5.90;;;4.60;;